createdAt,value
2022-11-08T00:00:10.743Z,87.90
2022-11-08T00:02:59.148Z,81.30
2022-11-08T00:05:45.950Z,78.40
2022-11-08T00:08:32.093Z,82.40
2022-11-08T00:11:25.273Z,84.90
2022-11-08T00:14:02.997Z,82.50
2022-11-08T00:16:31.214Z,80.50
2022-11-08T00:19:01.453Z,79.60
2022-11-08T00:21:31.641Z,85.00
2022-11-08T00:23:59.667Z,91.90
2022-11-08T00:26:28.372Z,89.90
2022-11-08T00:28:56.348Z,85.10
2022-11-08T00:31:24.644Z,82.80
2022-11-08T00:33:52.674Z,81.30
2022-11-08T00:36:20.643Z,83.40
2022-11-08T00:38:49.123Z,83.50
2022-11-08T00:41:17.108Z,83.10
2022-11-08T00:43:46.093Z,95.40
2022-11-08T00:46:14.072Z,85.80
2022-11-08T00:48:42.163Z,87.60
2022-11-08T00:51:12.486Z,90.70
2022-11-08T00:53:41.153Z,90.30
2022-11-08T00:56:12.139Z,85.20
2022-11-08T00:58:43.974Z,84.70
2022-11-08T01:01:15.178Z,81.70
2022-11-08T01:03:43.729Z,90.80
2022-11-08T01:06:13.432Z,87.30
2022-11-08T01:08:42.555Z,78.00
2022-11-08T01:11:16.693Z,92.50
2022-11-08T01:13:45.308Z,84.00
2022-11-08T01:16:21.446Z,83.90
2022-11-08T01:18:51.387Z,86.50
2022-11-08T01:21:21.228Z,88.70
2022-11-08T01:23:49.917Z,80.60
2022-11-08T01:26:23.259Z,80.30
2022-11-08T01:28:53.590Z,79.40
2022-11-08T01:31:27.900Z,74.80
2022-11-08T01:33:56.966Z,80.20
2022-11-08T01:36:27.719Z,73.70
2022-11-08T01:38:56.745Z,78.80
2022-11-08T01:41:26.874Z,79.20
2022-11-08T01:43:59.103Z,77.10
2022-11-08T01:46:31.063Z,80.20
2022-11-08T01:49:21.372Z,87.90
2022-11-08T01:51:58.446Z,85.30
2022-11-08T01:54:38.595Z,81.80
2022-11-08T01:57:11.006Z,78.70
2022-11-08T01:59:42.239Z,78.60
2022-11-08T02:02:11.707Z,83.00
2022-11-08T02:04:42.749Z,78.60
2022-11-08T02:07:13.383Z,82.40
2022-11-08T02:09:43.653Z,75.80
2022-11-08T02:12:15.116Z,77.30
2022-11-08T02:14:44.323Z,76.60
2022-11-08T02:17:12.648Z,79.00
2022-11-08T02:19:49.770Z,81.40
2022-11-08T02:22:33.252Z,86.70
2022-11-08T02:27:31.247Z,86.40
2022-11-08T02:29:59.337Z,83.30
2022-11-08T02:32:36.829Z,79.40
2022-11-08T02:35:09.712Z,78.10
2022-11-08T02:37:37.897Z,87.60
2022-11-08T02:40:06.597Z,78.40
2022-11-08T02:42:37.954Z,78.50
2022-11-08T02:45:07.656Z,73.30
2022-11-08T02:47:35.627Z,74.70
2022-11-08T02:50:03.795Z,78.90
2022-11-08T02:52:31.822Z,75.90
2022-11-08T02:54:59.755Z,78.50
2022-11-08T02:57:28.421Z,73.20
2022-11-08T02:59:56.996Z,76.20
2022-11-08T03:02:26.582Z,79.90
2022-11-08T03:04:56.073Z,83.20
2022-11-08T03:07:25.130Z,82.50
2022-11-08T03:09:53.341Z,83.70
2022-11-08T03:12:21.436Z,76.80
2022-11-08T03:14:50.731Z,77.50
2022-11-08T03:17:18.610Z,70.10
2022-11-08T03:19:46.631Z,76.10
2022-11-08T03:22:15.643Z,72.70
2022-11-08T03:24:43.789Z,73.20
2022-11-08T03:27:14.060Z,79.80
2022-11-08T03:29:42.460Z,72.90
2022-11-08T03:32:11.793Z,75.20
2022-11-08T03:34:39.924Z,69.80
2022-11-08T03:37:10.880Z,69.60
2022-11-08T03:39:38.832Z,63.60
2022-11-08T03:42:08.151Z,65.60
2022-11-08T03:44:36.102Z,63.40
2022-11-08T03:47:04.079Z,66.50
2022-11-08T03:49:32.016Z,62.70
2022-11-08T03:52:00.073Z,59.40
2022-11-08T03:54:29.664Z,62.20
2022-11-08T03:57:00.988Z,61.10
2022-11-08T03:59:29.677Z,57.30
2022-11-08T04:01:58.202Z,52.50
2022-11-08T04:04:26.653Z,47.30
2022-11-08T04:06:54.644Z,46.10
2022-11-08T04:09:22.930Z,46.50
2022-11-08T04:12:29.482Z,47.00
2022-11-08T04:15:15.874Z,57.60
2022-11-08T04:18:07.173Z,47.70
2022-11-08T04:21:01.113Z,50.30
2022-11-08T04:23:30.556Z,56.60
2022-11-08T04:26:01.754Z,65.60
2022-11-08T04:28:32.281Z,61.60
2022-11-08T04:31:03.626Z,49.20
2022-11-08T04:33:33.143Z,46.80
2022-11-08T04:36:03.378Z,53.20
2022-11-08T04:38:33.348Z,44.30
2022-11-08T04:41:03.686Z,46.20
2022-11-08T04:43:32.623Z,44.90
2022-11-08T04:46:09.186Z,46.70
2022-11-08T04:48:37.677Z,36.30
2022-11-08T04:51:32.536Z,36.50
2022-11-08T04:54:02.192Z,36.00
2022-11-08T04:56:31.543Z,35.80
2022-11-08T04:59:00.872Z,38.80
2022-11-08T05:01:31.447Z,40.90
2022-11-08T05:03:59.865Z,36.60
2022-11-08T05:06:31.790Z,36.30
2022-11-08T05:09:01.017Z,38.20
2022-11-08T05:11:30.309Z,37.90
2022-11-08T05:14:01.251Z,31.30
2022-11-08T05:16:33.144Z,29.30
2022-11-08T05:19:01.989Z,28.60
2022-11-08T05:21:49.057Z,34.50
2022-11-08T05:24:18.378Z,35.30
2022-11-08T05:26:49.619Z,33.40
2022-11-08T05:29:17.717Z,27.00
2022-11-08T05:31:46.571Z,28.40
2022-11-08T05:34:14.593Z,28.10
2022-11-08T05:36:44.227Z,32.00
2022-11-08T05:39:12.252Z,25.30
2022-11-08T05:41:42.141Z,29.80
2022-11-08T05:44:10.113Z,34.20
2022-11-08T05:46:38.063Z,25.20
2022-11-08T05:49:08.659Z,27.50
2022-11-08T05:51:37.332Z,24.80
2022-11-08T05:54:05.665Z,25.10
2022-11-08T05:56:34.303Z,22.10
2022-11-08T05:59:02.994Z,25.30
2022-11-08T06:01:32.576Z,25.40
2022-11-08T06:04:00.937Z,34.00
2022-11-08T06:06:29.053Z,24.50
2022-11-08T06:08:57.130Z,29.10
2022-11-08T06:11:27.992Z,25.50
2022-11-08T06:13:57.948Z,24.80
2022-11-08T06:16:27.086Z,25.90
2022-11-08T06:18:55.884Z,24.60
2022-11-08T06:21:24.120Z,25.70
2022-11-08T06:23:54.793Z,22.70
2022-11-08T06:26:24.276Z,21.10
2022-11-08T06:28:52.305Z,21.60
2022-11-08T06:31:24.932Z,26.40
2022-11-08T06:33:53.129Z,24.10
2022-11-08T06:36:22.455Z,24.90
2022-11-08T06:38:54.588Z,22.80
2022-11-08T06:41:23.680Z,23.00
2022-11-08T06:43:51.854Z,22.20
2022-11-08T06:46:20.618Z,22.10
2022-11-08T06:48:48.808Z,23.80
2022-11-08T06:51:17.324Z,26.20
2022-11-08T06:53:45.579Z,26.30
2022-11-08T06:56:15.008Z,22.20
2022-11-08T06:58:43.176Z,31.00
2022-11-08T07:01:13.925Z,22.70
2022-11-08T07:03:44.326Z,22.80
2022-11-08T07:06:12.982Z,27.30
2022-11-08T07:08:41.402Z,28.40
2022-11-08T07:11:10.361Z,25.00
2022-11-08T07:13:38.707Z,27.30
2022-11-08T07:16:11.628Z,27.80
2022-11-08T07:18:40.059Z,24.70
2022-11-08T07:21:08.240Z,27.10
2022-11-08T07:23:36.701Z,26.60
2022-11-08T07:26:06.008Z,23.00
2022-11-08T07:28:34.075Z,24.80
2022-11-08T07:31:05.331Z,30.90
2022-11-08T07:33:35.300Z,26.60
2022-11-08T07:36:03.721Z,28.70
2022-11-08T07:38:32.310Z,28.10
2022-11-08T07:41:01.811Z,25.90
2022-11-08T07:43:30.585Z,29.10
2022-11-08T07:46:09.963Z,32.30
2022-11-08T07:48:40.071Z,26.30
2022-11-08T07:51:08.025Z,30.00
2022-11-08T07:53:37.863Z,28.60
2022-11-08T07:56:07.957Z,27.70
2022-11-08T07:58:37.530Z,30.10
2022-11-08T08:01:10.776Z,31.90
2022-11-08T08:03:38.811Z,27.50
2022-11-08T08:06:06.957Z,27.30
2022-11-08T08:08:35.134Z,25.40
2022-11-08T08:11:03.827Z,23.80
2022-11-08T08:13:32.198Z,24.20
2022-11-08T08:16:01.299Z,25.60
2022-11-08T08:18:30.589Z,28.30
2022-11-08T08:20:58.821Z,26.40
2022-11-08T08:23:27.494Z,25.80
2022-11-08T08:25:56.201Z,30.70
2022-11-08T08:28:24.473Z,37.00
2022-11-08T08:30:52.964Z,28.10
2022-11-08T08:33:29.415Z,24.50
2022-11-08T08:36:05.415Z,24.20
2022-11-08T08:38:38.707Z,23.60
2022-11-08T08:41:09.621Z,22.20
2022-11-08T08:43:37.878Z,23.30
2022-11-08T08:46:07.918Z,25.10
2022-11-08T08:48:38.562Z,24.20
2022-11-08T08:51:06.724Z,22.20
2022-11-08T08:53:36.130Z,26.20
2022-11-08T08:56:05.882Z,43.90
2022-11-08T08:58:34.664Z,27.80
2022-11-08T09:03:53.652Z,23.10
2022-11-08T09:06:21.897Z,26.60
2022-11-08T09:08:50.112Z,30.90
2022-11-08T09:11:18.974Z,42.20
2022-11-08T09:13:47.176Z,23.80
2022-11-08T09:16:15.570Z,23.00
2022-11-08T09:18:44.032Z,27.40
2022-11-08T09:21:12.017Z,20.30
2022-11-08T09:23:41.598Z,23.40
2022-11-08T09:26:10.708Z,28.10
2022-11-08T09:28:39.072Z,23.30
2022-11-08T09:31:09.836Z,26.60
2022-11-08T09:33:41.248Z,24.70
2022-11-08T09:36:13.538Z,25.20
2022-11-08T09:38:42.113Z,30.60
2022-11-08T09:41:20.953Z,28.80
2022-11-08T09:44:16.663Z,34.60
2022-11-08T09:46:57.147Z,29.00
2022-11-08T09:50:01.478Z,28.90
2022-11-08T09:52:35.606Z,27.90
2022-11-08T09:55:37.640Z,55.60
2022-11-08T09:58:45.592Z,32.50
2022-11-08T10:01:14.195Z,34.80
2022-11-08T10:03:59.003Z,28.60
2022-11-08T10:06:49.992Z,33.20
2022-11-08T10:09:49.716Z,27.50
2022-11-08T10:12:21.190Z,27.30
2022-11-08T10:15:01.850Z,25.90
2022-11-08T10:17:34.903Z,24.70
2022-11-08T10:20:09.316Z,25.00
2022-11-08T10:23:14.799Z,27.60
2022-11-08T10:25:48.255Z,26.40
2022-11-08T10:28:24.081Z,35.30
2022-11-08T10:30:54.135Z,31.30
2022-11-08T10:33:31.126Z,26.30
2022-11-08T10:36:06.971Z,34.70
2022-11-08T10:39:08.996Z,29.30
2022-11-08T10:41:44.066Z,26.40
2022-11-08T10:44:19.999Z,51.60
2022-11-08T10:46:59.506Z,22.30
2022-11-08T10:49:32.387Z,23.50
2022-11-08T10:52:12.812Z,29.10
2022-11-08T10:54:42.769Z,25.80
2022-11-08T10:57:24.204Z,19.30
2022-11-08T10:59:54.050Z,24.00
2022-11-08T11:02:22.093Z,20.60
2022-11-08T11:04:52.983Z,19.40
2022-11-08T11:07:36.309Z,19.70
2022-11-08T11:10:26.605Z,21.80
2022-11-08T11:13:12.518Z,18.80
2022-11-08T11:15:59.013Z,20.20
2022-11-08T11:18:32.613Z,23.50
2022-11-08T11:21:06.515Z,22.00
2022-11-08T11:23:35.967Z,26.20
2022-11-08T11:26:06.775Z,25.90
2022-11-08T11:28:38.138Z,24.10
2022-11-08T11:31:17.178Z,19.60
2022-11-08T11:33:54.468Z,25.40
2022-11-08T11:36:28.138Z,24.70
2022-11-08T11:39:11.193Z,19.80
2022-11-08T11:41:51.125Z,16.30
2022-11-08T11:44:28.699Z,16.50
2022-11-08T11:47:03.678Z,18.40
2022-11-08T11:52:02.210Z,19.80
2022-11-08T11:54:35.325Z,18.30
2022-11-08T11:57:39.768Z,17.90
2022-11-08T12:00:15.160Z,26.50
2022-11-08T12:03:09.062Z,15.70
2022-11-08T12:06:03.128Z,16.20
2022-11-08T12:08:51.171Z,19.70
2022-11-08T12:12:15.315Z,18.40
2022-11-08T12:14:49.428Z,18.10
2022-11-08T12:17:53.767Z,26.90
2022-11-08T12:20:29.195Z,18.90
2022-11-08T12:23:35.935Z,19.40
2022-11-08T12:26:21.737Z,42.30
2022-11-08T12:28:56.127Z,22.50
2022-11-08T12:32:00.935Z,19.60
2022-11-08T12:34:53.805Z,16.80
2022-11-08T12:37:50.458Z,16.80
2022-11-08T12:41:07.960Z,20.90
2022-11-08T12:44:07.066Z,18.20
2022-11-08T12:47:01.793Z,22.30
2022-11-08T12:50:04.566Z,23.10
2022-11-08T12:52:36.716Z,18.50
2022-11-08T12:55:14.035Z,82.20
2022-11-08T12:57:45.900Z,21.30
2022-11-08T13:00:22.463Z,18.00
2022-11-08T13:03:30.850Z,18.80
2022-11-08T13:06:13.491Z,31.80
2022-11-08T13:08:57.517Z,16.10
2022-11-08T13:12:07.953Z,18.00
2022-11-08T13:14:41.138Z,15.30
2022-11-08T13:17:19.970Z,19.90
2022-11-08T13:20:04.445Z,29.00
2022-11-08T13:22:48.024Z,19.40
2022-11-08T13:25:19.231Z,22.00
2022-11-08T13:27:49.175Z,20.60
2022-11-08T13:30:20.490Z,19.10
2022-11-08T13:33:13.839Z,23.80
2022-11-08T13:36:06.738Z,18.20
2022-11-08T13:38:45.350Z,22.30
2022-11-08T13:41:17.186Z,23.00
2022-11-08T13:43:47.808Z,31.90
2022-11-08T13:46:28.522Z,18.90
2022-11-08T13:49:19.103Z,23.50
2022-11-08T13:51:48.316Z,24.30
2022-11-08T13:54:25.400Z,23.00
2022-11-08T13:56:58.219Z,21.80
2022-11-08T13:59:33.832Z,22.40
2022-11-08T14:02:22.024Z,22.00
2022-11-08T14:04:50.490Z,18.70
2022-11-08T14:07:28.709Z,22.50
2022-11-08T14:10:32.502Z,25.60
2022-11-08T14:13:08.800Z,24.60
2022-11-08T14:15:58.761Z,31.40
2022-11-08T14:18:30.378Z,19.60
2022-11-08T14:20:59.339Z,18.30
2022-11-08T14:23:39.684Z,17.50
2022-11-08T14:26:15.749Z,21.50
2022-11-08T14:28:47.038Z,20.50
2022-11-08T14:31:26.023Z,19.70
2022-11-08T14:33:55.477Z,20.80
2022-11-08T14:36:28.913Z,24.90
2022-11-08T14:39:12.028Z,22.30
2022-11-08T14:41:45.610Z,24.90
2022-11-08T14:44:16.392Z,23.10
2022-11-08T14:46:45.573Z,20.90
2022-11-08T14:49:14.042Z,22.20
2022-11-08T14:51:43.590Z,25.40
2022-11-08T14:54:19.902Z,29.00
2022-11-08T14:56:48.996Z,33.10
2022-11-08T14:59:18.890Z,30.00
2022-11-08T15:01:49.440Z,28.90
2022-11-08T15:04:21.640Z,31.60
2022-11-08T15:06:56.428Z,30.50
2022-11-08T15:09:29.669Z,31.40
2022-11-08T15:12:01.946Z,33.50
2022-11-08T15:14:34.424Z,32.50
2022-11-08T15:17:04.453Z,32.30
2022-11-08T15:19:46.577Z,31.60
2022-11-08T15:22:31.309Z,32.40
2022-11-08T15:25:18.598Z,35.30
2022-11-08T15:27:52.594Z,33.50
2022-11-08T15:30:23.699Z,30.90
2022-11-08T15:32:52.027Z,29.70
2022-11-08T15:35:34.854Z,29.70
2022-11-08T15:38:05.939Z,41.80
2022-11-08T15:40:36.487Z,33.10
2022-11-08T15:43:04.525Z,49.90
2022-11-08T15:45:35.323Z,40.40
2022-11-08T15:48:21.866Z,37.70
2022-11-08T15:50:50.694Z,41.30
2022-11-08T15:53:19.644Z,38.40
2022-11-08T15:56:06.231Z,45.40
2022-11-08T15:58:40.229Z,38.80
2022-11-08T16:01:21.629Z,35.30
2022-11-08T16:03:49.739Z,62.30
2022-11-08T16:06:17.738Z,39.10
2022-11-08T16:08:45.661Z,45.10
2022-11-08T16:11:21.378Z,36.00
2022-11-08T16:13:54.382Z,40.90
2022-11-08T16:16:24.758Z,37.40
2022-11-08T16:18:52.752Z,41.10
2022-11-08T16:21:20.830Z,43.30
2022-11-08T16:23:49.363Z,43.60
2022-11-08T16:26:19.388Z,34.80
2022-11-08T16:28:47.724Z,39.10
2022-11-08T16:31:18.685Z,35.20
2022-11-08T16:33:49.806Z,47.90
2022-11-08T16:36:23.857Z,38.40
2022-11-08T16:38:54.155Z,40.10
2022-11-08T16:41:29.454Z,39.40
2022-11-08T16:44:00.309Z,43.00
2022-11-08T16:46:29.667Z,42.70
2022-11-08T16:48:59.281Z,42.40
2022-11-08T16:51:29.444Z,36.00
2022-11-08T16:53:58.075Z,41.60
2022-11-08T16:56:26.632Z,43.60
2022-11-08T16:58:58.034Z,41.10
2022-11-08T17:01:33.767Z,44.70
2022-11-08T17:04:02.150Z,43.20
2022-11-08T17:06:30.374Z,43.80
2022-11-08T17:08:59.040Z,49.80
2022-11-08T17:11:27.247Z,41.60
2022-11-08T17:13:56.330Z,40.70
2022-11-08T17:16:25.019Z,36.20
2022-11-08T17:18:54.084Z,47.00
2022-11-08T17:21:43.499Z,37.00
2022-11-08T17:24:10.926Z,38.10
2022-11-08T17:26:40.164Z,45.10
2022-11-08T17:29:10.702Z,45.30
2022-11-08T17:31:41.062Z,44.00
2022-11-08T17:34:10.455Z,40.00
2022-11-08T17:36:38.667Z,42.70
2022-11-08T17:39:07.681Z,43.80
2022-11-08T17:41:35.650Z,48.90
2022-11-08T17:44:04.160Z,43.90
2022-11-08T17:46:32.220Z,42.00
2022-11-08T17:49:10.510Z,37.40
2022-11-08T17:51:38.546Z,41.90
2022-11-08T17:54:07.834Z,42.00
2022-11-08T17:56:36.391Z,36.70
2022-11-08T17:59:04.828Z,40.90
2022-11-08T18:01:34.110Z,40.20
2022-11-08T18:04:03.795Z,41.80
2022-11-08T18:06:32.272Z,43.10
2022-11-08T18:09:01.029Z,46.10
2022-11-08T18:11:29.443Z,47.60
2022-11-08T18:13:57.901Z,53.30
2022-11-08T18:16:28.454Z,49.00
2022-11-08T18:18:59.323Z,47.10
2022-11-08T18:21:27.373Z,49.90
2022-11-08T18:23:56.051Z,45.80
2022-11-08T18:26:24.076Z,49.10
2022-11-08T18:28:53.620Z,46.90
2022-11-08T18:31:24.468Z,44.70
2022-11-08T18:33:52.987Z,51.20
2022-11-08T18:36:24.166Z,47.70
2022-11-08T18:38:53.187Z,46.30
2022-11-08T18:41:28.101Z,44.50
2022-11-08T18:43:59.382Z,53.00
2022-11-08T18:46:33.058Z,50.10
2022-11-08T18:49:01.069Z,45.80
2022-11-08T18:51:29.566Z,50.60
2022-11-08T18:53:58.104Z,53.00
2022-11-08T18:56:27.966Z,48.50
2022-11-08T18:58:56.214Z,46.10
2022-11-08T19:01:24.782Z,45.00
2022-11-08T19:03:53.513Z,51.40
2022-11-08T19:06:22.853Z,49.90
2022-11-08T19:08:51.433Z,55.80
2022-11-08T19:11:22.950Z,46.80
2022-11-08T19:13:51.044Z,46.50
2022-11-08T19:16:20.738Z,49.10
2022-11-08T19:18:50.115Z,49.60
2022-11-08T19:21:23.214Z,45.80
2022-11-08T19:23:51.901Z,46.10
2022-11-08T19:26:22.562Z,47.60
2022-11-08T19:28:51.547Z,48.00
2022-11-08T19:31:22.437Z,50.30
2022-11-08T19:33:53.388Z,44.80
2022-11-08T19:36:24.893Z,42.20
2022-11-08T19:38:55.068Z,46.70
2022-11-08T19:41:26.648Z,49.60
2022-11-08T19:43:57.354Z,48.50
2022-11-08T19:46:29.425Z,48.20
2022-11-08T19:48:59.712Z,52.00
2022-11-08T19:51:31.703Z,49.20
2022-11-08T19:54:03.156Z,51.40
2022-11-08T19:57:02.593Z,48.50
2022-11-08T19:59:21.493Z,42.70
2022-11-08T20:01:50.181Z,49.30
2022-11-08T20:04:19.810Z,42.40
2022-11-08T20:06:49.859Z,42.90
2022-11-08T20:09:17.919Z,46.70
2022-11-08T20:11:45.968Z,53.40
2022-11-08T20:14:14.461Z,53.50
2022-11-08T20:16:49.254Z,52.40
2022-11-08T20:19:21.410Z,51.60
2022-11-08T20:21:50.040Z,49.80
2022-11-08T20:24:19.051Z,53.90
2022-11-08T20:26:47.847Z,49.80
2022-11-08T20:29:16.207Z,57.40
2022-11-08T20:31:44.912Z,47.40
2022-11-08T20:34:13.455Z,50.80
2022-11-08T20:36:44.221Z,48.60
2022-11-08T20:39:16.106Z,47.90
2022-11-08T20:41:44.244Z,45.60
2022-11-08T20:44:14.268Z,42.90
2022-11-08T20:46:42.447Z,46.50
2022-11-08T20:49:10.945Z,41.20
2022-11-08T20:51:40.027Z,48.60
2022-11-08T20:54:10.595Z,43.20
2022-11-08T20:56:39.751Z,46.90
2022-11-08T20:59:07.999Z,46.00
2022-11-08T21:01:36.784Z,45.60
2022-11-08T21:04:04.903Z,46.40
2022-11-08T21:06:36.433Z,51.70
2022-11-08T21:11:58.853Z,50.90
2022-11-08T21:14:26.878Z,51.40
2022-11-08T21:19:45.157Z,52.80
2022-11-08T21:22:15.996Z,44.90
2022-11-08T21:24:46.112Z,43.50
2022-11-08T21:27:15.544Z,45.80
2022-11-08T21:29:46.148Z,49.50
2022-11-08T21:32:14.389Z,47.00
2022-11-08T21:34:46.087Z,43.10
2022-11-08T21:37:14.507Z,49.80
2022-11-08T21:39:42.904Z,46.40
2022-11-08T21:42:11.065Z,48.60
2022-11-08T21:44:39.107Z,45.00
2022-11-08T21:47:07.258Z,37.00
2022-11-08T21:49:37.945Z,41.30
2022-11-08T21:52:05.927Z,37.90
2022-11-08T21:54:33.919Z,44.30
2022-11-08T21:57:02.067Z,44.20
2022-11-08T21:59:29.949Z,43.40
2022-11-08T22:01:57.933Z,38.60
2022-11-08T22:04:25.823Z,39.90
2022-11-08T22:06:53.936Z,39.90
2022-11-08T22:09:24.451Z,40.70
2022-11-08T22:11:56.817Z,41.00
2022-11-08T22:14:26.086Z,36.50
2022-11-08T22:16:54.093Z,38.60
2022-11-08T22:19:22.142Z,33.50
2022-11-08T22:21:52.306Z,33.30
2022-11-08T22:24:21.292Z,34.90
2022-11-08T22:26:51.719Z,37.00
2022-11-08T22:29:20.061Z,36.70
2022-11-08T22:31:48.303Z,33.10
2022-11-08T22:34:16.617Z,31.70
2022-11-08T22:36:46.103Z,31.90
2022-11-08T22:39:16.407Z,29.60
2022-11-08T22:41:45.676Z,28.10
2022-11-08T22:44:14.412Z,28.00
2022-11-08T22:46:43.464Z,33.50
2022-11-08T22:49:12.452Z,29.50
2022-11-08T22:51:41.360Z,34.30
2022-11-08T22:54:09.340Z,33.80
2022-11-08T22:56:37.392Z,34.60
2022-11-08T22:59:05.390Z,30.60
2022-11-08T23:01:34.323Z,32.20
2022-11-08T23:04:02.399Z,34.30
2022-11-08T23:06:30.494Z,35.80
2022-11-08T23:08:58.565Z,36.80
2022-11-08T23:11:45.174Z,33.00
2022-11-08T23:14:36.784Z,36.80
2022-11-08T23:17:08.311Z,36.80
2022-11-08T23:19:54.647Z,37.20
2022-11-08T23:22:41.419Z,38.20
2022-11-08T23:25:09.805Z,56.10
2022-11-08T23:27:58.237Z,42.20
2022-11-08T23:30:44.492Z,41.60
2022-11-08T23:33:12.662Z,36.40
2022-11-08T23:36:00.581Z,37.30
2022-11-08T23:38:29.229Z,38.30
2022-11-08T23:41:17.790Z,35.90
2022-11-08T23:44:04.177Z,36.10
2022-11-08T23:46:32.875Z,32.40
2022-11-08T23:49:01.744Z,31.20
2022-11-08T23:51:30.613Z,31.00
2022-11-08T23:53:59.232Z,35.20
2022-11-08T23:56:28.694Z,30.20
2022-11-08T23:58:59.482Z,34.90
